createdAt,value
2022-12-18T00:01:42.712Z,-2.80
2022-12-18T00:04:19.753Z,-2.80
2022-12-18T00:06:46.615Z,-2.70
2022-12-18T00:09:15.151Z,-2.80
2022-12-18T00:11:42.278Z,-2.80
2022-12-18T00:14:11.550Z,-2.80
2022-12-18T00:16:38.419Z,-2.80
2022-12-18T00:19:06.340Z,-2.80
2022-12-18T00:21:33.495Z,-2.90
2022-12-18T00:24:01.348Z,-2.90
2022-12-18T00:26:33.480Z,-2.90
2022-12-18T00:29:07.839Z,-2.90
2022-12-18T00:31:35.593Z,-2.90
2022-12-18T00:34:03.053Z,-2.90
2022-12-18T00:36:33.283Z,-3.00
2022-12-18T00:39:01.688Z,-3.00
2022-12-18T00:41:47.724Z,-3.00
2022-12-18T00:44:16.679Z,-3.10
2022-12-18T00:46:44.819Z,-3.10
2022-12-18T00:49:11.900Z,-3.10
2022-12-18T00:51:38.678Z,-3.10
2022-12-18T00:54:05.827Z,-3.10
2022-12-18T00:56:32.615Z,-3.20
2022-12-18T00:58:59.399Z,-3.20
2022-12-18T01:01:26.273Z,-3.10
2022-12-18T01:03:53.048Z,-3.10
2022-12-18T01:06:20.855Z,-3.10
2022-12-18T01:08:47.616Z,-3.10
2022-12-18T01:11:17.197Z,-3.10
2022-12-18T01:13:44.503Z,-3.10
2022-12-18T01:16:16.800Z,-3.10
2022-12-18T01:18:43.829Z,-3.10
2022-12-18T01:21:13.580Z,-3.10
2022-12-18T01:23:40.969Z,-3.10
2022-12-18T01:26:14.008Z,-3.20
2022-12-18T01:28:41.288Z,-3.20
2022-12-18T01:31:28.647Z,-3.20
2022-12-18T01:33:56.603Z,-3.20
2022-12-18T01:36:26.122Z,-3.20
2022-12-18T01:38:54.133Z,-3.20
2022-12-18T01:41:26.881Z,-3.20
2022-12-18T01:43:56.453Z,-3.20
2022-12-18T01:46:25.056Z,-3.20
2022-12-18T01:48:57.957Z,-3.20
2022-12-18T01:51:26.587Z,-3.20
2022-12-18T01:53:53.272Z,-3.20
2022-12-18T01:56:21.411Z,-3.20
2022-12-18T01:59:02.806Z,-3.20
2022-12-18T02:01:31.696Z,-3.20
2022-12-18T02:04:21.744Z,-3.30
2022-12-18T02:06:55.853Z,-3.30
2022-12-18T02:09:31.072Z,-3.40
2022-12-18T02:12:13.417Z,-3.40
2022-12-18T02:15:06.440Z,-3.40
2022-12-18T02:17:43.711Z,-3.40
2022-12-18T02:20:36.859Z,-3.40
2022-12-18T02:23:24.379Z,-3.30
2022-12-18T02:25:58.417Z,-3.30
2022-12-18T02:28:29.062Z,-3.40
2022-12-18T02:31:08.884Z,-3.40
2022-12-18T02:33:37.565Z,-3.40
2022-12-18T02:36:06.698Z,-3.40
2022-12-18T02:38:35.783Z,-3.40
2022-12-18T02:41:08.944Z,-3.40
2022-12-18T02:43:36.767Z,-3.30
2022-12-18T02:46:26.873Z,-3.30
2022-12-18T02:49:03.317Z,-3.30
2022-12-18T02:51:40.647Z,-3.40
2022-12-18T02:54:15.002Z,-3.40
2022-12-18T02:56:54.201Z,-3.40
2022-12-18T02:59:46.448Z,-3.40
2022-12-18T03:02:23.657Z,-3.50
2022-12-18T03:05:13.087Z,-3.50
2022-12-18T03:07:52.055Z,-3.50
2022-12-18T03:10:25.783Z,-3.50
2022-12-18T03:12:59.402Z,-3.60
2022-12-18T03:15:31.382Z,-3.60
2022-12-18T03:18:13.552Z,-3.60
2022-12-18T03:20:45.324Z,-3.60
2022-12-18T03:23:20.765Z,-3.60
2022-12-18T03:25:53.526Z,-3.60
2022-12-18T03:28:23.525Z,-3.60
2022-12-18T03:30:59.413Z,-3.60
2022-12-18T03:33:35.615Z,-3.60
2022-12-18T03:36:02.717Z,-3.60
2022-12-18T03:38:29.432Z,-3.60
2022-12-18T03:41:23.132Z,-3.60
2022-12-18T03:44:29.085Z,-3.50
2022-12-18T03:47:15.034Z,-3.50
2022-12-18T03:50:12.452Z,-3.50
2022-12-18T03:52:57.764Z,-3.60
2022-12-18T03:55:28.541Z,-3.60
2022-12-18T03:58:02.783Z,-3.60
2022-12-18T04:00:40.912Z,-3.60
2022-12-18T04:03:13.387Z,-3.60
2022-12-18T04:05:46.634Z,-3.70
2022-12-18T04:08:15.205Z,-3.70
2022-12-18T04:10:48.651Z,-3.70
2022-12-18T04:13:29.155Z,-3.80
2022-12-18T04:15:57.203Z,-3.80
2022-12-18T04:18:24.945Z,-3.80
2022-12-18T04:20:52.052Z,-3.80
2022-12-18T04:23:18.938Z,-3.90
2022-12-18T04:25:47.955Z,-3.90
2022-12-18T04:28:20.829Z,-3.90
2022-12-18T04:30:48.370Z,-3.90
2022-12-18T04:33:18.963Z,-3.90
2022-12-18T04:35:46.023Z,-3.90
2022-12-18T04:38:14.152Z,-3.90
2022-12-18T04:40:41.424Z,-3.90
2022-12-18T04:43:16.229Z,-3.90
2022-12-18T04:45:42.951Z,-3.90
2022-12-18T04:48:09.939Z,-3.90
2022-12-18T04:50:37.268Z,-4.00
2022-12-18T04:53:04.163Z,-4.00
2022-12-18T04:55:31.242Z,-4.00
2022-12-18T04:57:58.066Z,-4.10
2022-12-18T05:00:24.772Z,-4.00
2022-12-18T05:02:52.552Z,-4.00
2022-12-18T05:05:19.405Z,-4.00
2022-12-18T05:07:46.338Z,-4.10
2022-12-18T05:10:12.987Z,-4.10
2022-12-18T05:12:58.840Z,-4.10
2022-12-18T05:15:31.345Z,-4.20
2022-12-18T05:17:59.537Z,-4.20
2022-12-18T05:20:26.676Z,-4.30
2022-12-18T05:22:54.781Z,-4.30
2022-12-18T05:25:22.054Z,-4.30
2022-12-18T05:27:49.083Z,-4.30
2022-12-18T05:30:16.776Z,-4.30
2022-12-18T05:32:43.789Z,-4.30
2022-12-18T05:35:11.767Z,-4.30
2022-12-18T05:37:42.933Z,-4.30
2022-12-18T05:40:11.864Z,-4.30
2022-12-18T05:42:38.561Z,-4.30
2022-12-18T05:45:06.092Z,-4.30
2022-12-18T05:47:32.967Z,-4.40
2022-12-18T05:49:59.599Z,-4.40
2022-12-18T05:52:26.318Z,-4.40
2022-12-18T05:54:53.108Z,-4.50
2022-12-18T05:57:19.856Z,-4.50
2022-12-18T05:59:46.608Z,-4.50
2022-12-18T06:02:13.372Z,-4.50
2022-12-18T06:04:40.626Z,-4.60
2022-12-18T06:07:07.465Z,-4.60
2022-12-18T06:09:34.098Z,-4.60
2022-12-18T06:12:00.892Z,-4.70
2022-12-18T06:14:27.619Z,-4.70
2022-12-18T06:16:54.400Z,-4.70
2022-12-18T06:19:21.160Z,-4.70
2022-12-18T06:21:47.915Z,-4.80
2022-12-18T06:24:14.559Z,-4.80
2022-12-18T06:26:41.300Z,-4.80
2022-12-18T06:29:08.193Z,-4.80
2022-12-18T06:31:35.155Z,-4.80
2022-12-18T06:34:05.463Z,-4.80
2022-12-18T06:36:32.944Z,-4.80
2022-12-18T06:38:59.891Z,-4.70
2022-12-18T06:41:26.818Z,-4.80
2022-12-18T06:43:56.939Z,-4.80
2022-12-18T06:46:26.351Z,-4.70
2022-12-18T06:48:53.623Z,-4.80
2022-12-18T06:51:22.106Z,-4.80
2022-12-18T06:53:48.920Z,-4.80
2022-12-18T06:56:15.795Z,-4.80
2022-12-18T06:58:42.922Z,-4.80
2022-12-18T07:01:12.118Z,-4.90
2022-12-18T07:03:41.143Z,-4.80
2022-12-18T07:06:15.776Z,-4.80
2022-12-18T07:08:42.781Z,-4.90
2022-12-18T07:11:09.467Z,-4.90
2022-12-18T07:13:36.408Z,-4.90
2022-12-18T07:16:16.043Z,-4.90
2022-12-18T07:18:46.235Z,-4.90
2022-12-18T07:21:15.456Z,-5.00
2022-12-18T07:23:42.903Z,-5.00
2022-12-18T07:26:12.768Z,-5.00
2022-12-18T07:28:41.281Z,-5.00
2022-12-18T07:31:10.736Z,-5.10
2022-12-18T07:33:39.295Z,-5.00
2022-12-18T07:36:08.420Z,-5.00
2022-12-18T07:38:36.102Z,-5.00
2022-12-18T07:41:04.500Z,-5.00
2022-12-18T07:43:34.674Z,-5.00
2022-12-18T07:46:01.502Z,-5.00
2022-12-18T07:48:29.594Z,-4.90
2022-12-18T07:51:05.062Z,-4.90
2022-12-18T07:53:32.859Z,-4.90
2022-12-18T07:56:25.917Z,-4.80
2022-12-18T07:58:48.349Z,-4.80
2022-12-18T08:01:15.943Z,-4.90
2022-12-18T08:03:43.291Z,-4.80
2022-12-18T08:06:10.803Z,-4.80
2022-12-18T08:08:38.001Z,-4.90
2022-12-18T08:11:04.853Z,-4.90
2022-12-18T08:13:32.171Z,-4.90
2022-12-18T08:16:00.688Z,-4.90
2022-12-18T08:18:27.633Z,-4.90
2022-12-18T08:20:56.215Z,-4.90
2022-12-18T08:23:23.144Z,-4.90
2022-12-18T08:25:50.834Z,-5.00
2022-12-18T08:28:19.004Z,-5.00
2022-12-18T08:30:45.681Z,-5.00
2022-12-18T08:33:13.138Z,-5.00
2022-12-18T08:35:45.616Z,-5.00
2022-12-18T08:38:12.757Z,-5.00
2022-12-18T08:40:39.516Z,-4.90
2022-12-18T08:43:25.028Z,-4.90
2022-12-18T08:45:51.787Z,-4.80
2022-12-18T08:48:22.120Z,-4.80
2022-12-18T08:50:59.841Z,-4.80
2022-12-18T08:53:31.442Z,-4.70
2022-12-18T08:56:00.808Z,-4.70
2022-12-18T08:58:27.437Z,-4.70
2022-12-18T09:00:54.230Z,-4.60
2022-12-18T09:03:23.408Z,-4.60
2022-12-18T09:05:51.061Z,-4.50
2022-12-18T09:08:17.731Z,-4.50
2022-12-18T09:10:49.467Z,-4.40
2022-12-18T09:13:17.929Z,-4.40
2022-12-18T09:15:46.775Z,-4.30
2022-12-18T09:18:15.063Z,-4.30
2022-12-18T09:20:42.112Z,-4.30
2022-12-18T09:23:09.704Z,-4.20
2022-12-18T09:25:37.524Z,-4.20
2022-12-18T09:28:08.044Z,-4.20
2022-12-18T09:30:35.101Z,-4.20
2022-12-18T09:33:02.552Z,-4.20
2022-12-18T09:35:29.300Z,-4.20
2022-12-18T09:37:56.224Z,-4.20
2022-12-18T09:40:26.671Z,-4.10
2022-12-18T09:42:58.443Z,-4.10
2022-12-18T09:45:25.530Z,-4.10
2022-12-18T09:47:55.232Z,-4.00
2022-12-18T09:50:28.150Z,-4.00
2022-12-18T09:52:58.768Z,-4.00
2022-12-18T09:55:46.876Z,-4.00
2022-12-18T09:58:40.866Z,-4.00
2022-12-18T10:01:15.340Z,-4.00
2022-12-18T10:03:45.137Z,-3.90
2022-12-18T10:06:36.325Z,-3.90
2022-12-18T10:09:07.690Z,-3.90
2022-12-18T10:11:42.726Z,-3.90
2022-12-18T10:14:27.978Z,-3.90
2022-12-18T10:17:23.952Z,-3.90
2022-12-18T10:20:11.497Z,-3.80
2022-12-18T10:22:50.225Z,-3.70
2022-12-18T10:25:47.450Z,-3.70
2022-12-18T10:28:17.467Z,-3.60
2022-12-18T10:30:44.904Z,-3.50
2022-12-18T10:33:16.806Z,-3.50
2022-12-18T10:35:44.455Z,-3.40
2022-12-18T10:38:17.094Z,-3.40
2022-12-18T10:40:55.473Z,-3.30
2022-12-18T10:43:27.009Z,-3.30
2022-12-18T10:46:09.355Z,-3.20
2022-12-18T10:48:48.385Z,-3.20
2022-12-18T10:51:38.183Z,-3.20
2022-12-18T10:54:07.656Z,-3.10
2022-12-18T10:56:38.861Z,-3.00
2022-12-18T10:59:09.042Z,-3.00
2022-12-18T11:01:49.687Z,-2.90
2022-12-18T11:04:25.508Z,-2.80
2022-12-18T11:06:58.301Z,-2.80
2022-12-18T11:09:33.121Z,-2.70
2022-12-18T11:12:02.778Z,-2.70
2022-12-18T11:14:48.426Z,-2.60
2022-12-18T11:17:26.432Z,-2.60
2022-12-18T11:19:56.327Z,-2.60
2022-12-18T11:22:28.709Z,-2.50
2022-12-18T11:25:36.148Z,-2.50
2022-12-18T11:28:06.160Z,-2.40
2022-12-18T11:30:36.973Z,-2.40
2022-12-18T11:33:20.224Z,-2.30
2022-12-18T11:35:57.892Z,-2.30
2022-12-18T11:38:29.324Z,-2.40
2022-12-18T11:41:45.441Z,-2.50
2022-12-18T11:44:19.412Z,-2.50
2022-12-18T11:46:52.925Z,-2.60
2022-12-18T11:49:29.508Z,-2.60
2022-12-18T11:51:58.919Z,-2.50
2022-12-18T11:54:25.581Z,-2.50
2022-12-18T11:56:56.311Z,-2.50
2022-12-18T11:59:49.936Z,-2.50
2022-12-18T12:02:35.656Z,-2.40
2022-12-18T12:05:07.285Z,-2.40
2022-12-18T12:08:12.347Z,-2.40
2022-12-18T12:11:04.299Z,-2.40
2022-12-18T12:13:58.271Z,-2.30
2022-12-18T12:16:47.015Z,-2.30
2022-12-18T12:19:34.012Z,-2.30
2022-12-18T12:22:26.038Z,-2.20
2022-12-18T12:25:22.405Z,-2.20
2022-12-18T12:28:15.092Z,-2.20
2022-12-18T12:30:47.820Z,-2.20
2022-12-18T12:33:20.800Z,-2.20
2022-12-18T12:36:05.113Z,-2.20
2022-12-18T12:38:41.308Z,-2.10
2022-12-18T12:41:32.711Z,-2.10
2022-12-18T12:44:03.723Z,-2.10
2022-12-18T12:46:33.539Z,-2.10
2022-12-18T12:49:05.146Z,-2.10
2022-12-18T12:51:38.213Z,-2.10
2022-12-18T12:54:20.416Z,-2.10
2022-12-18T12:57:00.623Z,-2.20
2022-12-18T12:59:30.692Z,-2.20
2022-12-18T13:02:06.141Z,-2.20
2022-12-18T13:04:48.518Z,-2.20
2022-12-18T13:07:42.591Z,-2.30
2022-12-18T13:10:15.250Z,-2.30
2022-12-18T13:13:11.143Z,-2.30
2022-12-18T13:16:08.334Z,-2.40
2022-12-18T13:18:35.934Z,-2.40
2022-12-18T13:21:12.024Z,-2.30
2022-12-18T13:23:41.421Z,-2.30
2022-12-18T13:26:09.211Z,-2.30
2022-12-18T13:28:42.105Z,-2.20
2022-12-18T13:31:08.971Z,-2.20
2022-12-18T13:34:09.413Z,-2.20
2022-12-18T13:36:33.039Z,-2.20
2022-12-18T13:39:16.455Z,-2.20
2022-12-18T13:41:48.554Z,-2.20
2022-12-18T13:44:39.977Z,-2.20
2022-12-18T13:47:34.141Z,-2.20
2022-12-18T13:50:02.740Z,-2.30
2022-12-18T13:52:37.160Z,-2.30
2022-12-18T13:55:15.615Z,-2.30
2022-12-18T13:57:42.484Z,-2.30
2022-12-18T14:00:24.527Z,-2.30
2022-12-18T14:02:52.438Z,-2.30
2022-12-18T14:05:27.640Z,-2.20
2022-12-18T14:07:55.494Z,-2.20
2022-12-18T14:13:15.593Z,-2.20
2022-12-18T14:15:45.256Z,-2.10
2022-12-18T14:18:39.345Z,-2.20
2022-12-18T14:21:07.637Z,-2.30
2022-12-18T14:23:36.514Z,-2.30
2022-12-18T14:26:23.129Z,-2.30
2022-12-18T14:28:50.061Z,-2.40
2022-12-18T14:31:22.306Z,-2.30
2022-12-18T14:33:49.501Z,-2.40
2022-12-18T14:36:22.232Z,-2.40
2022-12-18T14:38:54.769Z,-2.40
2022-12-18T14:41:22.645Z,-2.40
2022-12-18T14:43:51.970Z,-2.40
2022-12-18T14:46:33.822Z,-2.40
2022-12-18T14:49:03.927Z,-2.40
2022-12-18T14:51:34.212Z,-2.40
2022-12-18T14:54:02.847Z,-2.40
2022-12-18T14:56:35.777Z,-2.50
2022-12-18T14:59:17.030Z,-2.50
2022-12-18T15:01:58.109Z,-2.50
2022-12-18T15:04:39.876Z,-2.50
2022-12-18T15:07:15.700Z,-2.50
2022-12-18T15:10:00.916Z,-2.50
2022-12-18T15:12:35.465Z,-2.50
2022-12-18T15:15:02.562Z,-2.50
2022-12-18T15:17:29.566Z,-2.50
2022-12-18T15:20:09.891Z,-2.60
2022-12-18T15:22:38.534Z,-2.60
2022-12-18T15:25:29.029Z,-2.60
2022-12-18T15:27:55.787Z,-2.70
2022-12-18T15:30:23.492Z,-2.70
2022-12-18T15:32:50.755Z,-2.80
2022-12-18T15:35:23.167Z,-2.80
2022-12-18T15:37:51.356Z,-2.80
2022-12-18T15:40:23.920Z,-2.80
2022-12-18T15:43:13.662Z,-2.90
2022-12-18T15:45:40.879Z,-2.90
2022-12-18T15:48:20.905Z,-3.00
2022-12-18T15:50:47.624Z,-3.00
2022-12-18T15:53:14.473Z,-3.00
2022-12-18T15:56:01.270Z,-3.00
2022-12-18T15:58:28.336Z,-3.00
2022-12-18T16:00:56.685Z,-3.00
2022-12-18T16:03:23.426Z,-3.00
2022-12-18T16:05:50.996Z,-3.00
2022-12-18T16:08:17.636Z,-3.10
2022-12-18T16:10:44.336Z,-3.00
2022-12-18T16:13:21.839Z,-3.10
2022-12-18T16:15:48.742Z,-3.10
2022-12-18T16:18:15.548Z,-3.10
2022-12-18T16:20:42.531Z,-3.10
2022-12-18T16:23:09.216Z,-3.10
2022-12-18T16:25:35.974Z,-3.10
2022-12-18T16:28:02.736Z,-3.10
2022-12-18T16:30:37.946Z,-3.20
2022-12-18T16:33:06.232Z,-3.10
2022-12-18T16:35:34.907Z,-3.20
2022-12-18T16:38:01.669Z,-3.20
2022-12-18T16:40:28.527Z,-3.20
2022-12-18T16:42:55.427Z,-3.20
2022-12-18T16:45:22.227Z,-3.20
2022-12-18T16:47:50.152Z,-3.20
2022-12-18T16:50:16.898Z,-3.20
2022-12-18T16:52:43.914Z,-3.20
2022-12-18T16:55:10.808Z,-3.20
2022-12-18T16:57:37.531Z,-3.20
2022-12-18T17:00:06.196Z,-3.20
2022-12-18T17:02:33.763Z,-3.20
2022-12-18T17:05:00.790Z,-3.20
2022-12-18T17:07:28.632Z,-3.20
2022-12-18T17:09:55.955Z,-3.20
2022-12-18T17:12:23.295Z,-3.30
2022-12-18T17:14:50.600Z,-3.20
2022-12-18T17:17:22.702Z,-3.20
2022-12-18T17:19:51.859Z,-3.30
2022-12-18T17:22:19.017Z,-3.30
2022-12-18T17:24:46.861Z,-3.30
2022-12-18T17:27:14.037Z,-3.30
2022-12-18T17:29:46.774Z,-3.30
2022-12-18T17:32:20.761Z,-3.30
2022-12-18T17:34:48.016Z,-3.30
2022-12-18T17:37:17.347Z,-3.30
2022-12-18T17:39:44.820Z,-3.30
2022-12-18T17:42:15.211Z,-3.30
2022-12-18T17:44:43.195Z,-3.30
2022-12-18T17:47:11.952Z,-3.30
2022-12-18T17:49:39.013Z,-3.30
2022-12-18T17:52:05.693Z,-3.30
2022-12-18T17:54:33.067Z,-3.30
2022-12-18T17:57:00.018Z,-3.30
2022-12-18T17:59:26.768Z,-3.30
2022-12-18T18:01:53.661Z,-3.30
2022-12-18T18:04:20.657Z,-3.30
2022-12-18T18:06:47.688Z,-3.30
2022-12-18T18:09:17.015Z,-3.30
2022-12-18T18:12:03.718Z,-3.30
2022-12-18T18:14:31.531Z,-3.30
2022-12-18T18:17:04.117Z,-3.30
2022-12-18T18:19:31.796Z,-3.30
2022-12-18T18:21:58.458Z,-3.30
2022-12-18T18:24:25.918Z,-3.30
2022-12-18T18:26:53.656Z,-3.30
2022-12-18T18:29:23.727Z,-3.30
2022-12-18T18:31:53.084Z,-3.30
2022-12-18T18:34:25.269Z,-3.30
2022-12-18T18:36:52.471Z,-3.30
2022-12-18T18:39:19.884Z,-3.30
2022-12-18T18:41:47.828Z,-3.30
2022-12-18T18:44:16.333Z,-3.40
2022-12-18T18:46:43.271Z,-3.40
2022-12-18T18:49:10.684Z,-3.40
2022-12-18T18:51:37.475Z,-3.40
2022-12-18T18:54:04.314Z,-3.40
2022-12-18T18:56:56.420Z,-3.30
2022-12-18T18:59:19.184Z,-3.40
2022-12-18T19:01:49.255Z,-3.40
2022-12-18T19:04:16.121Z,-3.40
2022-12-18T19:06:43.893Z,-3.40
2022-12-18T19:09:10.951Z,-3.40
2022-12-18T19:11:57.340Z,-3.40
2022-12-18T19:14:24.454Z,-3.40
2022-12-18T19:16:51.209Z,-3.40
2022-12-18T19:19:21.043Z,-3.40
2022-12-18T19:21:48.356Z,-3.40
2022-12-18T19:24:15.311Z,-3.40
2022-12-18T19:26:42.152Z,-3.40
2022-12-18T19:29:12.080Z,-3.40
2022-12-18T19:31:40.393Z,-3.40
2022-12-18T19:34:08.114Z,-3.40
2022-12-18T19:36:38.065Z,-3.50
2022-12-18T19:39:16.792Z,-3.50
2022-12-18T19:41:44.495Z,-3.50
2022-12-18T19:44:13.605Z,-3.50
2022-12-18T19:46:42.312Z,-3.50
2022-12-18T19:49:16.283Z,-3.60
2022-12-18T19:51:45.296Z,-3.60
2022-12-18T19:54:17.064Z,-3.50
2022-12-18T19:56:45.211Z,-3.50
2022-12-18T19:59:11.885Z,-3.50
2022-12-18T20:01:38.657Z,-3.50
2022-12-18T20:04:06.023Z,-3.50
2022-12-18T20:06:54.772Z,-3.50
2022-12-18T20:09:22.013Z,-3.50
2022-12-18T20:11:49.589Z,-3.50
2022-12-18T20:14:23.082Z,-3.50
2022-12-18T20:16:52.190Z,-3.50
2022-12-18T20:19:19.319Z,-3.40
2022-12-18T20:21:46.385Z,-3.40
2022-12-18T20:24:13.200Z,-3.40
2022-12-18T20:26:40.513Z,-3.40
2022-12-18T20:29:07.194Z,-3.40
2022-12-18T20:31:34.161Z,-3.30
2022-12-18T20:34:02.668Z,-3.30
2022-12-18T20:36:34.089Z,-3.30
2022-12-18T20:39:05.057Z,-3.30
2022-12-18T20:41:38.778Z,-3.20
2022-12-18T20:44:22.305Z,-3.20
2022-12-18T20:46:52.580Z,-3.20
2022-12-18T20:49:19.305Z,-3.10
2022-12-18T20:51:49.210Z,-3.20
2022-12-18T20:54:16.142Z,-3.10
2022-12-18T20:56:42.889Z,-3.10
2022-12-18T20:59:09.672Z,-3.10
2022-12-18T21:01:36.552Z,-3.10
2022-12-18T21:04:05.490Z,-3.00
2022-12-18T21:06:32.363Z,-3.00
2022-12-18T21:08:59.051Z,-3.00
2022-12-18T21:11:47.360Z,-3.00
2022-12-18T21:14:20.229Z,-3.00
2022-12-18T21:16:47.642Z,-3.00
2022-12-18T21:19:20.536Z,-3.00
2022-12-18T21:21:47.363Z,-3.00
2022-12-18T21:24:14.615Z,-3.00
2022-12-18T21:26:45.858Z,-3.00
2022-12-18T21:29:22.590Z,-3.00
2022-12-18T21:31:50.101Z,-3.00
2022-12-18T21:34:20.804Z,-3.00
2022-12-18T21:36:48.275Z,-3.00
2022-12-18T21:39:15.885Z,-3.00
2022-12-18T21:42:01.530Z,-3.00
2022-12-18T21:44:28.859Z,-3.00
2022-12-18T21:47:00.580Z,-3.00
2022-12-18T21:49:33.439Z,-3.00
2022-12-18T21:52:00.897Z,-3.00
2022-12-18T21:54:29.711Z,-3.00
2022-12-18T21:57:02.485Z,-3.00
2022-12-18T21:59:35.496Z,-3.00
2022-12-18T22:02:14.438Z,-2.90
2022-12-18T22:04:42.689Z,-2.90
2022-12-18T22:07:10.350Z,-2.90
2022-12-18T22:09:38.322Z,-2.90
2022-12-18T22:12:06.190Z,-2.90
2022-12-18T22:14:32.866Z,-2.90
2022-12-18T22:16:59.555Z,-2.90
2022-12-18T22:19:26.869Z,-2.80
2022-12-18T22:21:54.486Z,-2.80
2022-12-18T22:24:25.040Z,-2.80
2022-12-18T22:26:54.173Z,-2.70
2022-12-18T22:29:45.061Z,-2.70
2022-12-18T22:32:16.815Z,-2.60
2022-12-18T22:34:47.060Z,-2.60
2022-12-18T22:37:13.801Z,-2.50
2022-12-18T22:39:40.630Z,-2.50
2022-12-18T22:42:07.900Z,-2.50
2022-12-18T22:44:34.713Z,-2.50
2022-12-18T22:47:06.320Z,-2.50
2022-12-18T22:49:35.315Z,-2.50
2022-12-18T22:52:03.583Z,-2.50
2022-12-18T22:54:30.508Z,-2.50
2022-12-18T22:56:57.447Z,-2.50
2022-12-18T22:59:24.695Z,-2.50
2022-12-18T23:01:54.510Z,-2.40
2022-12-18T23:04:30.155Z,-2.40
2022-12-18T23:07:06.940Z,-2.50
2022-12-18T23:09:34.137Z,-2.40
2022-12-18T23:12:01.423Z,-2.40
2022-12-18T23:14:29.010Z,-2.40
2022-12-18T23:16:56.257Z,-2.40
2022-12-18T23:19:23.807Z,-2.40
2022-12-18T23:21:51.444Z,-2.40
2022-12-18T23:24:18.511Z,-2.30
2022-12-18T23:26:45.172Z,-2.30
2022-12-18T23:29:11.753Z,-2.30
2022-12-18T23:31:39.425Z,-2.30
2022-12-18T23:34:07.139Z,-2.20
2022-12-18T23:36:37.660Z,-2.20
2022-12-18T23:39:24.049Z,-2.20
2022-12-18T23:42:00.279Z,-2.20
2022-12-18T23:44:27.767Z,-2.20
2022-12-18T23:46:55.049Z,-2.10
2022-12-18T23:49:21.928Z,-2.10
2022-12-18T23:51:49.031Z,-2.10
2022-12-18T23:54:15.958Z,-2.00
2022-12-18T23:56:42.753Z,-2.00
2022-12-18T23:59:09.604Z,-2.00
